createdAt,value
2018-05-15T00:00:11.938Z,100391.41
2018-05-15T00:01:14.415Z,100389.63
2018-05-15T00:02:16.891Z,100391.81
2018-05-15T00:03:19.362Z,100386.67
2018-05-15T00:04:21.850Z,100390.25
2018-05-15T00:05:24.325Z,100389.05
2018-05-15T00:06:26.803Z,100393.02
2018-05-15T00:07:29.277Z,100393.59
2018-05-15T00:08:31.755Z,100395.97
2018-05-15T00:09:34.251Z,100390.03
2018-05-15T00:10:36.723Z,100396.15
2018-05-15T00:11:39.198Z,100402.27
2018-05-15T00:12:41.675Z,100397.13
2018-05-15T00:13:44.143Z,100397.31
2018-05-15T00:14:46.643Z,100403.25
2018-05-15T00:15:49.118Z,100404.23
2018-05-15T00:16:51.593Z,100398.92
2018-05-15T00:17:54.070Z,100399.31
2018-05-15T00:18:56.547Z,100395.56
2018-05-15T00:19:59.035Z,100404.67
2018-05-15T00:21:01.511Z,100405.88
2018-05-15T00:22:03.986Z,100410.03
2018-05-15T00:23:06.469Z,100411.42
2018-05-15T00:24:08.951Z,100408.66
2018-05-15T00:25:11.503Z,100411.24
2018-05-15T00:26:14.004Z,100415.00
2018-05-15T00:27:16.486Z,100415.39
2018-05-15T00:28:18.952Z,100417.41
2018-05-15T00:29:21.428Z,100419.19
2018-05-15T00:30:23.914Z,100413.83
2018-05-15T00:31:26.390Z,100416.42
2018-05-15T00:32:28.866Z,100423.92
2018-05-15T00:33:31.336Z,100417.18
2018-05-15T00:34:33.806Z,100418.16
2018-05-15T00:35:36.301Z,100420.94
2018-05-15T00:36:38.772Z,100423.13
2018-05-15T00:37:41.238Z,100422.55
2018-05-15T00:38:43.707Z,100424.73
2018-05-15T00:39:46.186Z,100429.87
2018-05-15T00:40:48.668Z,100420.58
2018-05-15T00:41:51.163Z,100426.11
2018-05-15T00:42:53.640Z,100422.36
2018-05-15T00:43:56.110Z,100425.53
2018-05-15T00:44:58.579Z,100421.56
2018-05-15T00:46:01.068Z,100427.50
2018-05-15T00:47:03.539Z,100424.73
2018-05-15T00:48:06.013Z,100417.41
2018-05-15T00:49:08.561Z,100417.41
2018-05-15T00:50:11.072Z,100417.18
2018-05-15T00:51:13.634Z,100421.73
2018-05-15T00:52:16.144Z,100421.30
2018-05-15T00:53:18.638Z,100424.87
2018-05-15T00:54:21.133Z,100427.23
2018-05-15T00:55:35.490Z,100429.60
2018-05-15T00:56:37.975Z,100425.62
2018-05-15T00:57:40.461Z,100429.38
2018-05-15T00:58:42.938Z,100426.44
2018-05-15T00:59:45.429Z,100426.21
2018-05-15T01:00:47.939Z,100430.55
2018-05-15T01:01:50.447Z,100425.00
2018-05-15T01:02:52.949Z,100429.56
2018-05-15T01:03:55.437Z,100433.71
2018-05-15T01:04:57.925Z,100428.36
2018-05-15T01:06:00.412Z,100432.11
2018-05-15T01:07:02.926Z,100431.70
2018-05-15T01:08:05.417Z,100434.48
2018-05-15T01:09:07.909Z,100424.38
2018-05-15T01:10:10.412Z,100429.52
2018-05-15T01:11:12.888Z,100435.64
2018-05-15T01:12:15.411Z,100433.67
2018-05-15T01:13:18.005Z,100433.27
2018-05-15T01:14:20.489Z,100431.70
2018-05-15T01:15:22.987Z,100435.05
2018-05-15T01:16:25.461Z,100435.64
2018-05-15T01:17:27.973Z,100433.09
2018-05-15T01:18:30.443Z,100436.27
2018-05-15T01:19:32.964Z,100435.28
2018-05-15T01:20:35.441Z,100439.44
2018-05-15T01:21:37.941Z,100443.81
2018-05-15T01:22:40.430Z,100431.34
2018-05-15T01:23:42.917Z,100442.47
2018-05-15T01:24:45.404Z,100433.17
2018-05-15T01:25:47.909Z,100442.29
2018-05-15T01:26:50.421Z,100441.70
2018-05-15T01:27:52.940Z,100437.37
2018-05-15T01:28:55.439Z,100437.59
2018-05-15T01:29:57.929Z,100440.55
2018-05-15T01:31:00.406Z,100442.91
2018-05-15T01:32:02.882Z,100435.41
2018-05-15T01:33:05.395Z,100440.95
2018-05-15T01:34:07.885Z,100433.84
2018-05-15T01:35:10.367Z,100438.80
2018-05-15T01:36:12.854Z,100438.00
2018-05-15T01:37:15.339Z,100434.42
2018-05-15T01:38:17.849Z,100436.79
2018-05-15T01:39:20.357Z,100439.96
2018-05-15T01:40:22.864Z,100432.23
2018-05-15T01:41:25.371Z,100438.98
2018-05-15T01:42:27.888Z,100434.61
2018-05-15T01:43:30.423Z,100441.34
2018-05-15T01:44:32.921Z,100439.34
2018-05-15T01:45:35.398Z,100438.58
2018-05-15T01:46:37.893Z,100430.45
2018-05-15T01:47:40.362Z,100430.63
2018-05-15T01:48:42.888Z,100425.48
2018-05-15T01:49:45.373Z,100423.92
2018-05-15T01:50:47.860Z,100419.55
2018-05-15T01:51:50.356Z,100424.51
2018-05-15T01:52:52.843Z,100421.92
2018-05-15T01:53:55.367Z,100426.08
2018-05-15T01:54:57.860Z,100426.47
2018-05-15T01:56:00.358Z,100430.23
2018-05-15T01:57:02.867Z,100422.72
2018-05-15T01:58:05.375Z,100423.13
2018-05-15T01:59:07.876Z,100419.55
2018-05-15T02:00:10.400Z,100422.14
2018-05-15T02:01:12.927Z,100424.69
2018-05-15T02:02:15.417Z,100427.45
2018-05-15T02:03:17.931Z,100423.30
2018-05-15T02:04:20.439Z,100426.30
2018-05-15T02:05:22.947Z,100423.52
2018-05-15T02:06:25.445Z,100421.96
2018-05-15T02:07:27.937Z,100422.94
2018-05-15T02:08:30.443Z,100426.91
2018-05-15T02:09:32.949Z,100422.77
2018-05-15T02:10:35.453Z,100427.14
2018-05-15T02:11:37.945Z,100428.13
2018-05-15T02:12:40.439Z,100429.11
2018-05-15T02:13:42.944Z,100426.16
2018-05-15T02:14:45.452Z,100422.84
2018-05-15T02:15:47.941Z,100424.77
2018-05-15T02:16:50.414Z,100423.39
2018-05-15T02:17:52.906Z,100424.55
2018-05-15T02:18:55.497Z,100420.39
2018-05-15T02:19:57.988Z,100421.38
2018-05-15T02:21:00.481Z,100424.73
2018-05-15T02:22:02.979Z,100424.33
2018-05-15T02:23:05.487Z,100426.08
2018-05-15T02:24:07.980Z,100423.88
2018-05-15T02:25:10.553Z,100425.45
2018-05-15T02:26:13.040Z,100420.89
2018-05-15T02:27:15.540Z,100425.45
2018-05-15T02:28:18.048Z,100426.08
2018-05-15T02:29:20.537Z,100424.11
2018-05-15T02:30:23.092Z,100429.06
2018-05-15T02:31:25.563Z,100428.70
2018-05-15T02:32:28.061Z,100429.77
2018-05-15T02:33:30.551Z,100433.16
2018-05-15T02:34:33.063Z,100433.73
2018-05-15T02:35:35.655Z,100433.16
2018-05-15T02:36:38.160Z,100431.19
2018-05-15T02:37:40.650Z,100434.54
2018-05-15T02:38:43.141Z,100439.86
2018-05-15T02:39:45.638Z,100436.91
2018-05-15T02:40:48.155Z,100439.45
2018-05-15T02:41:50.649Z,100437.09
2018-05-15T02:42:53.138Z,100438.62
2018-05-15T02:43:55.615Z,100437.41
2018-05-15T02:44:58.127Z,100435.81
2018-05-15T02:46:00.641Z,100433.44
2018-05-15T02:47:03.112Z,100437.77
2018-05-15T02:48:05.645Z,100434.20
2018-05-15T02:49:08.135Z,100434.78
2018-05-15T02:50:10.644Z,100432.19
2018-05-15T02:51:13.287Z,100433.40
2018-05-15T02:52:15.791Z,100432.02
2018-05-15T02:53:18.300Z,100428.84
2018-05-15T02:54:20.809Z,100427.05
2018-05-15T02:55:23.295Z,100426.25
2018-05-15T02:56:25.840Z,100428.62
2018-05-15T02:57:28.326Z,100425.05
2018-05-15T02:58:30.827Z,100429.60
2018-05-15T02:59:33.315Z,100430.59
2018-05-15T03:00:37.211Z,100431.56
2018-05-15T03:01:40.178Z,100430.19
2018-05-15T03:02:43.135Z,100429.20
2018-05-15T03:03:45.654Z,100436.53
2018-05-15T03:04:48.478Z,100432.55
2018-05-15T03:05:51.015Z,100439.88
2018-05-15T03:06:53.540Z,100440.45
2018-05-15T03:07:56.058Z,100438.27
2018-05-15T03:08:58.535Z,100443.98
2018-05-15T03:10:01.024Z,100440.81
2018-05-15T03:11:03.539Z,100441.58
2018-05-15T03:12:06.064Z,100441.17
2018-05-15T03:13:08.590Z,100443.55
2018-05-15T03:14:11.091Z,100440.95
2018-05-15T03:15:13.596Z,100441.72
2018-05-15T03:16:16.090Z,100441.31
2018-05-15T03:17:18.619Z,100439.12
2018-05-15T03:18:21.109Z,100439.12
2018-05-15T03:19:23.586Z,100437.16
2018-05-15T03:20:26.088Z,100435.38
2018-05-15T03:21:28.575Z,100434.97
2018-05-15T03:22:31.099Z,100439.34
2018-05-15T03:23:33.593Z,100445.29
2018-05-15T03:24:36.084Z,100437.96
2018-05-15T03:25:38.556Z,100449.27
2018-05-15T03:26:41.045Z,100447.08
2018-05-15T03:27:43.549Z,100448.64
2018-05-15T03:28:46.056Z,100446.63
2018-05-15T03:29:48.549Z,100453.38
2018-05-15T03:30:51.060Z,100448.23
2018-05-15T03:31:53.651Z,100449.80
2018-05-15T03:32:56.123Z,100447.39
2018-05-15T03:33:58.608Z,100449.39
2018-05-15T03:35:01.112Z,100449.39
2018-05-15T03:36:03.615Z,100455.34
2018-05-15T03:37:06.093Z,100449.98
2018-05-15T03:38:08.586Z,100453.33
2018-05-15T03:39:11.080Z,100443.63
2018-05-15T03:40:13.725Z,100454.94
2018-05-15T03:41:16.235Z,100452.92
2018-05-15T03:42:18.789Z,100452.92
2018-05-15T03:43:21.286Z,100453.11
2018-05-15T03:44:23.773Z,100454.89
2018-05-15T03:45:26.254Z,100453.33
2018-05-15T03:46:28.749Z,100459.45
2018-05-15T03:47:31.247Z,100451.95
2018-05-15T03:48:33.767Z,100458.69
2018-05-15T03:49:36.272Z,100459.62
2018-05-15T03:50:38.766Z,100460.25
2018-05-15T03:51:41.243Z,100459.62
2018-05-15T03:52:43.739Z,100456.67
2018-05-15T03:53:46.234Z,100456.67
2018-05-15T03:54:48.760Z,100465.16
2018-05-15T03:55:51.254Z,100458.64
2018-05-15T03:56:53.729Z,100462.80
2018-05-15T03:57:56.439Z,100465.16
2018-05-15T03:58:58.944Z,100468.48
2018-05-15T04:00:01.432Z,100469.47
2018-05-15T04:01:15.926Z,100468.26
2018-05-15T04:02:30.121Z,100470.05
2018-05-15T04:03:44.547Z,100474.37
2018-05-15T04:04:59.029Z,100472.19
2018-05-15T04:06:13.319Z,100473.75
2018-05-15T04:07:27.603Z,100465.84
2018-05-15T04:08:30.079Z,100472.37
2018-05-15T04:09:32.572Z,100475.54
2018-05-15T04:10:35.058Z,100473.93
2018-05-15T04:11:37.532Z,100475.72
2018-05-15T04:12:40.012Z,100473.93
2018-05-15T04:13:42.482Z,100473.93
2018-05-15T04:14:44.982Z,100479.06
2018-05-15T04:15:47.478Z,100480.05
2018-05-15T04:16:49.946Z,100481.66
2018-05-15T04:17:52.432Z,100483.84
2018-05-15T04:18:54.932Z,100481.66
2018-05-15T04:19:57.438Z,100478.48
2018-05-15T04:20:59.959Z,100481.66
2018-05-15T04:22:02.447Z,100489.56
2018-05-15T04:23:04.934Z,100486.22
2018-05-15T04:24:07.444Z,100483.27
2018-05-15T04:25:09.951Z,100483.48
2018-05-15T04:26:12.444Z,100479.34
2018-05-15T04:27:14.937Z,100486.08
2018-05-15T04:28:17.492Z,100484.11
2018-05-15T04:29:19.929Z,100482.33
2018-05-15T04:30:22.406Z,100479.81
2018-05-15T04:31:24.933Z,100480.80
2018-05-15T04:32:27.407Z,100483.79
2018-05-15T04:33:29.882Z,100479.45
2018-05-15T04:34:32.364Z,100490.36
2018-05-15T04:35:34.857Z,100488.39
2018-05-15T04:36:37.346Z,100489.38
2018-05-15T04:37:39.964Z,100492.95
2018-05-15T04:38:42.456Z,100489.77
2018-05-15T04:39:44.963Z,100486.78
2018-05-15T04:40:47.448Z,100487.94
2018-05-15T04:41:49.987Z,100489.33
2018-05-15T04:42:52.477Z,100490.89
2018-05-15T04:43:55.016Z,100489.66
2018-05-15T04:44:57.455Z,100490.23
2018-05-15T04:45:59.965Z,100486.27
2018-05-15T04:47:02.506Z,100486.61
2018-05-15T04:48:04.986Z,100489.16
2018-05-15T04:49:07.476Z,100486.97
2018-05-15T04:50:09.974Z,100489.34
2018-05-15T04:51:12.461Z,100488.36
2018-05-15T04:52:14.989Z,100493.67
2018-05-15T04:53:17.478Z,100496.44
2018-05-15T04:54:19.972Z,100490.09
2018-05-15T04:55:22.483Z,100490.68
2018-05-15T04:56:24.970Z,100490.05
2018-05-15T04:57:27.492Z,100485.91
2018-05-15T04:58:30.011Z,100499.75
2018-05-15T04:59:32.538Z,100487.28
2018-05-15T05:00:35.028Z,100493.00
2018-05-15T05:01:37.521Z,100489.25
2018-05-15T05:02:40.056Z,100488.41
2018-05-15T05:03:42.556Z,100494.94
2018-05-15T05:04:45.118Z,100496.58
2018-05-15T05:05:47.595Z,100496.17
2018-05-15T05:06:50.077Z,100492.06
2018-05-15T05:07:52.615Z,100492.87
2018-05-15T05:08:55.109Z,100493.09
2018-05-15T05:09:57.600Z,100495.06
2018-05-15T05:11:00.097Z,100498.23
2018-05-15T05:12:02.588Z,100501.40
2018-05-15T05:13:05.109Z,100505.33
2018-05-15T05:14:07.610Z,100502.16
2018-05-15T05:15:10.181Z,100505.91
2018-05-15T05:16:12.684Z,100504.30
2018-05-15T05:17:15.181Z,100505.28
2018-05-15T05:18:17.698Z,100506.66
2018-05-15T05:19:20.197Z,100499.92
2018-05-15T05:20:22.696Z,100502.91
2018-05-15T05:21:25.176Z,100504.97
2018-05-15T05:22:27.650Z,100498.80
2018-05-15T05:23:30.146Z,100503.94
2018-05-15T05:24:32.692Z,100507.30
2018-05-15T05:25:35.184Z,100509.61
2018-05-15T05:26:37.753Z,100506.77
2018-05-15T05:27:40.221Z,100508.78
2018-05-15T05:28:42.769Z,100507.57
2018-05-15T05:29:45.283Z,100501.18
2018-05-15T05:30:47.766Z,100505.91
2018-05-15T05:31:50.297Z,100508.45
2018-05-15T05:32:52.801Z,100513.11
2018-05-15T05:33:55.290Z,100511.45
2018-05-15T05:34:57.777Z,100511.86
2018-05-15T05:36:00.271Z,100512.87
2018-05-15T05:37:02.779Z,100513.62
2018-05-15T05:38:05.300Z,100507.48
2018-05-15T05:39:07.822Z,100513.73
2018-05-15T05:40:10.391Z,100519.34
2018-05-15T05:41:12.877Z,100520.97
2018-05-15T05:42:15.367Z,100524.58
2018-05-15T05:43:17.896Z,100525.63
2018-05-15T05:44:20.410Z,100526.55
2018-05-15T05:45:22.917Z,100529.17
2018-05-15T05:46:25.477Z,100530.62
2018-05-15T05:47:27.973Z,100534.61
2018-05-15T05:48:30.475Z,100535.86
2018-05-15T05:49:32.991Z,100534.44
2018-05-15T05:50:35.564Z,100534.78
2018-05-15T05:51:38.056Z,100539.63
2018-05-15T05:52:40.522Z,100537.30
2018-05-15T05:53:43.049Z,100540.70
2018-05-15T05:54:45.591Z,100538.40
2018-05-15T05:55:48.062Z,100542.34
2018-05-15T05:56:50.580Z,100542.13
2018-05-15T05:57:53.055Z,100538.75
2018-05-15T05:58:55.545Z,100542.84
2018-05-15T05:59:58.058Z,100533.45
2018-05-15T06:01:00.596Z,100541.92
2018-05-15T06:02:03.102Z,100536.51
2018-05-15T06:03:05.570Z,100540.83
2018-05-15T06:04:08.075Z,100547.09
2018-05-15T06:05:10.603Z,100541.66
2018-05-15T06:06:13.098Z,100537.28
2018-05-15T06:07:15.600Z,100541.56
2018-05-15T06:08:18.097Z,100548.41
2018-05-15T06:09:20.596Z,100554.05
2018-05-15T06:10:23.144Z,100549.09
2018-05-15T06:11:25.651Z,100552.20
2018-05-15T06:12:28.155Z,100551.17
2018-05-15T06:13:30.651Z,100549.20
2018-05-15T06:14:33.154Z,100546.47
2018-05-15T06:15:35.680Z,100548.59
2018-05-15T06:16:38.162Z,100545.77
2018-05-15T06:17:40.635Z,100547.16
2018-05-15T06:18:43.151Z,100553.66
2018-05-15T06:19:45.645Z,100544.80
2018-05-15T06:20:48.188Z,100556.83
2018-05-15T06:21:50.674Z,100555.22
2018-05-15T06:22:53.227Z,100558.38
2018-05-15T06:23:55.725Z,100565.68
2018-05-15T06:24:58.240Z,100564.12
2018-05-15T06:26:00.745Z,100562.50
2018-05-15T06:27:03.273Z,100559.58
2018-05-15T06:28:05.746Z,100561.53
2018-05-15T06:29:08.228Z,100562.67
2018-05-15T06:30:10.735Z,100566.98
2018-05-15T06:31:13.245Z,100561.41
2018-05-15T06:32:15.814Z,100558.87
2018-05-15T06:33:18.277Z,100556.98
2018-05-15T06:34:20.750Z,100553.31
2018-05-15T06:35:23.241Z,100557.41
2018-05-15T06:36:25.761Z,100552.27
2018-05-15T06:37:28.253Z,100549.05
2018-05-15T06:38:30.813Z,100553.31
2018-05-15T06:39:33.293Z,100551.34
2018-05-15T06:40:35.778Z,100558.94
2018-05-15T06:41:38.293Z,100551.34
2018-05-15T06:42:40.789Z,100553.82
2018-05-15T06:43:43.282Z,100548.98
2018-05-15T06:44:45.818Z,100559.37
2018-05-15T06:45:48.319Z,100558.72
2018-05-15T06:46:50.809Z,100557.23
2018-05-15T06:47:53.287Z,100558.84
2018-05-15T06:48:55.775Z,100564.25
2018-05-15T06:49:58.269Z,100547.33
2018-05-15T06:51:00.742Z,100552.34
2018-05-15T06:52:03.249Z,100550.23
2018-05-15T06:53:05.726Z,100549.89
2018-05-15T06:54:08.225Z,100553.29
2018-05-15T06:55:10.709Z,100550.75
2018-05-15T06:56:13.210Z,100556.16
2018-05-15T06:57:15.733Z,100553.28
2018-05-15T06:58:18.233Z,100552.59
2018-05-15T06:59:20.742Z,100555.41
2018-05-15T07:00:23.234Z,100557.86
2018-05-15T07:01:25.747Z,100558.72
2018-05-15T07:02:28.252Z,100561.55
2018-05-15T07:03:30.745Z,100564.59
2018-05-15T07:04:33.247Z,100564.65
2018-05-15T07:05:35.761Z,100563.95
2018-05-15T07:06:38.276Z,100567.58
2018-05-15T07:07:40.869Z,100574.00
2018-05-15T07:08:43.299Z,100568.53
2018-05-15T07:09:45.788Z,100571.75
2018-05-15T07:10:48.297Z,100570.02
2018-05-15T07:11:50.791Z,100569.50
2018-05-15T07:12:53.313Z,100569.73
2018-05-15T07:13:56.260Z,100569.78
2018-05-15T07:14:58.743Z,100572.03
2018-05-15T07:16:01.231Z,100563.99
2018-05-15T07:17:03.717Z,100566.98
2018-05-15T07:18:06.240Z,100569.00
2018-05-15T07:19:08.819Z,100565.08
2018-05-15T07:20:11.290Z,100563.52
2018-05-15T07:21:13.824Z,100564.56
2018-05-15T07:22:16.299Z,100564.96
2018-05-15T07:23:18.808Z,100561.62
2018-05-15T07:24:21.306Z,100566.22
2018-05-15T07:25:23.816Z,100568.98
2018-05-15T07:26:26.333Z,100560.92
2018-05-15T07:27:28.891Z,100559.54
2018-05-15T07:28:31.379Z,100564.49
2018-05-15T07:29:33.866Z,100562.53
2018-05-15T07:30:36.381Z,100568.06
2018-05-15T07:31:38.960Z,100560.80
2018-05-15T07:32:41.406Z,100568.92
2018-05-15T07:33:43.906Z,100570.08
2018-05-15T07:34:46.413Z,100575.16
2018-05-15T07:35:48.917Z,100574.17
2018-05-15T07:36:51.413Z,100578.61
2018-05-15T07:37:53.897Z,100575.62
2018-05-15T07:38:56.390Z,100572.00
2018-05-15T07:40:00.710Z,100574.36
2018-05-15T07:41:03.231Z,100570.55
2018-05-15T07:42:05.747Z,100577.88
2018-05-15T07:43:08.265Z,100572.92
2018-05-15T07:44:10.783Z,100569.75
2018-05-15T07:45:13.277Z,100568.77
2018-05-15T07:46:15.792Z,100569.98
2018-05-15T07:47:18.274Z,100576.55
2018-05-15T07:48:20.822Z,100571.42
2018-05-15T07:49:23.342Z,100568.87
2018-05-15T07:50:25.837Z,100569.69
2018-05-15T07:51:28.341Z,100571.30
2018-05-15T07:52:30.843Z,100575.27
2018-05-15T07:53:33.426Z,100577.69
2018-05-15T07:54:35.890Z,100573.19
2018-05-15T07:55:38.370Z,100577.73
2018-05-15T07:56:41.767Z,100577.97
2018-05-15T07:57:44.956Z,100580.38
2018-05-15T07:58:48.870Z,100574.68
2018-05-15T07:59:53.108Z,100577.30
2018-05-15T08:00:57.088Z,100574.77
2018-05-15T08:02:01.040Z,100578.39
2018-05-15T08:03:03.770Z,100587.98
2018-05-15T08:04:06.269Z,100580.89
2018-05-15T08:05:08.799Z,100582.50
2018-05-15T08:06:11.279Z,100582.16
2018-05-15T08:07:13.769Z,100577.13
2018-05-15T08:08:16.264Z,100585.66
2018-05-15T08:09:18.743Z,100580.93
2018-05-15T08:10:21.273Z,100581.36
2018-05-15T08:11:23.750Z,100583.95
2018-05-15T08:12:26.255Z,100583.78
2018-05-15T08:13:28.748Z,100582.22
2018-05-15T08:14:31.230Z,100578.30
2018-05-15T08:15:33.722Z,100583.08
2018-05-15T08:16:36.240Z,100580.14
2018-05-15T08:17:38.752Z,100589.06
2018-05-15T08:18:41.249Z,100583.13
2018-05-15T08:19:43.731Z,100582.73
2018-05-15T08:20:46.251Z,100580.77
2018-05-15T08:21:48.739Z,100581.34
2018-05-15T08:22:51.221Z,100584.92
2018-05-15T08:23:53.702Z,100583.13
2018-05-15T08:24:56.205Z,100583.71
2018-05-15T08:25:58.732Z,100585.90
2018-05-15T08:27:01.234Z,100584.92
2018-05-15T08:28:03.734Z,100587.11
2018-05-15T08:29:06.246Z,100586.70
2018-05-15T08:30:08.755Z,100593.22
2018-05-15T08:31:11.259Z,100585.32
2018-05-15T08:32:13.749Z,100587.11
2018-05-15T08:33:16.247Z,100584.34
2018-05-15T08:34:18.729Z,100584.97
2018-05-15T08:35:21.253Z,100586.13
2018-05-15T08:36:23.766Z,100584.16
2018-05-15T08:37:26.336Z,100586.53
2018-05-15T08:38:28.866Z,100591.08
2018-05-15T08:39:31.408Z,100589.52
2018-05-15T08:40:33.920Z,100592.06
2018-05-15T08:41:36.423Z,100592.46
2018-05-15T08:42:38.922Z,100595.23
2018-05-15T08:43:41.414Z,100597.24
2018-05-15T08:44:43.924Z,100593.09
2018-05-15T08:45:46.439Z,100596.44
2018-05-15T08:46:48.972Z,100602.77
2018-05-15T08:47:51.484Z,100602.20
2018-05-15T08:48:53.973Z,100593.72
2018-05-15T08:49:56.466Z,100593.72
2018-05-15T08:50:58.946Z,100593.72
2018-05-15T08:52:01.473Z,100592.56
2018-05-15T08:53:03.966Z,100595.33
2018-05-15T08:54:06.443Z,100592.97
2018-05-15T08:55:08.957Z,100596.55
2018-05-15T08:56:11.458Z,100598.91
2018-05-15T08:57:13.987Z,100596.14
2018-05-15T08:58:16.490Z,100592.80
2018-05-15T08:59:18.999Z,100592.22
2018-05-15T09:00:21.512Z,100591.81
2018-05-15T09:01:24.012Z,100595.79
2018-05-15T09:02:26.533Z,100598.16
2018-05-15T09:03:29.043Z,100597.75
2018-05-15T09:04:31.545Z,100592.05
2018-05-15T09:05:34.023Z,100590.26
2018-05-15T09:06:36.525Z,100585.93
2018-05-15T09:07:39.054Z,100585.93
2018-05-15T09:08:41.552Z,100584.14
2018-05-15T09:09:44.067Z,100589.68
2018-05-15T09:10:46.581Z,100579.42
2018-05-15T09:11:49.091Z,100595.30
2018-05-15T09:12:51.599Z,100590.48
2018-05-15T09:13:54.090Z,100587.58
2018-05-15T09:14:56.939Z,100588.38
2018-05-15T09:15:59.583Z,100579.67
2018-05-15T09:17:02.070Z,100579.42
2018-05-15T09:18:04.612Z,100587.98
2018-05-15T09:19:07.150Z,100578.30
2018-05-15T09:20:09.659Z,100582.84
2018-05-15T09:21:12.139Z,100581.06
2018-05-15T09:22:14.639Z,100580.88
2018-05-15T09:23:17.172Z,100579.50
2018-05-15T09:24:19.665Z,100583.88
2018-05-15T09:25:22.148Z,100583.48
2018-05-15T09:26:24.676Z,100581.34
2018-05-15T09:27:28.512Z,100583.70
2018-05-15T09:28:31.176Z,100580.76
2018-05-15T09:29:33.684Z,100583.53
2018-05-15T09:30:36.177Z,100590.27
2018-05-15T09:31:38.665Z,100583.75
2018-05-15T09:32:41.169Z,100586.12
2018-05-15T09:33:43.686Z,100585.95
2018-05-15T09:34:46.209Z,100582.95
2018-05-15T09:35:48.728Z,100583.75
2018-05-15T09:36:51.233Z,100591.08
2018-05-15T09:37:53.714Z,100584.96
2018-05-15T09:38:56.233Z,100584.16
2018-05-15T09:39:58.725Z,100581.80
2018-05-15T09:41:01.199Z,100588.13
2018-05-15T09:42:03.766Z,100589.11
2018-05-15T09:43:06.281Z,100585.36
2018-05-15T09:44:08.783Z,100583.00
2018-05-15T09:45:11.277Z,100586.58
2018-05-15T09:46:13.763Z,100587.55
2018-05-15T09:47:16.268Z,100589.11
2018-05-15T09:48:18.759Z,100583.58
2018-05-15T09:49:21.287Z,100589.74
2018-05-15T09:50:23.800Z,100588.94
2018-05-15T09:51:26.296Z,100591.12
2018-05-15T09:52:28.874Z,100592.91
2018-05-15T09:53:31.367Z,100584.61
2018-05-15T09:54:33.904Z,100584.61
2018-05-15T09:55:36.395Z,100591.36
2018-05-15T09:56:38.925Z,100590.95
2018-05-15T09:57:41.450Z,100586.39
2018-05-15T09:58:43.964Z,100594.13
2018-05-15T09:59:46.473Z,100589.97
2018-05-15T10:00:48.955Z,100590.55
2018-05-15T10:01:51.434Z,100590.14
2018-05-15T10:02:53.934Z,100589.56
2018-05-15T10:03:56.426Z,100588.18
2018-05-15T10:04:58.923Z,100590.77
2018-05-15T10:06:01.421Z,100586.63
2018-05-15T10:07:03.918Z,100586.63
2018-05-15T10:08:06.452Z,100588.41
2018-05-15T10:09:09.018Z,100589.62
2018-05-15T10:10:11.555Z,100583.69
2018-05-15T10:11:14.045Z,100588.64
2018-05-15T10:12:16.523Z,100582.30
2018-05-15T10:13:19.021Z,100585.47
2018-05-15T10:14:21.517Z,100587.66
2018-05-15T10:15:24.033Z,100576.98
2018-05-15T10:16:26.529Z,100576.98
2018-05-15T10:17:29.013Z,100576.02
2018-05-15T10:18:31.512Z,100580.97
2018-05-15T10:19:34.005Z,100583.16
2018-05-15T10:20:36.504Z,100574.05
2018-05-15T10:21:38.986Z,100581.37
2018-05-15T10:22:41.485Z,100580.79
2018-05-15T10:23:43.990Z,100587.53
2018-05-15T10:24:46.504Z,100578.42
2018-05-15T10:25:49.003Z,100583.38
2018-05-15T10:26:51.501Z,100574.09
2018-05-15T10:27:54.004Z,100574.91
2018-05-15T10:28:56.557Z,100576.69
2018-05-15T10:29:59.150Z,100576.69
2018-05-15T10:31:01.614Z,100573.12
2018-05-15T10:32:04.107Z,100585.80
2018-05-15T10:33:06.587Z,100580.27
2018-05-15T10:34:09.071Z,100578.88
2018-05-15T10:35:11.573Z,100582.05
2018-05-15T10:36:14.075Z,100577.75
2018-05-15T10:37:16.636Z,100583.84
2018-05-15T10:38:19.047Z,100586.86
2018-05-15T10:39:21.523Z,100578.56
2018-05-15T10:40:24.010Z,100579.54
2018-05-15T10:41:26.502Z,100574.98
2018-05-15T10:42:29.008Z,100571.23
2018-05-15T10:43:31.486Z,100573.02
2018-05-15T10:44:33.960Z,100570.94
2018-05-15T10:45:36.463Z,100573.70
2018-05-15T10:46:39.008Z,100574.69
2018-05-15T10:47:41.499Z,100578.03
2018-05-15T10:48:43.996Z,100567.36
2018-05-15T10:49:46.490Z,100572.31
2018-05-15T10:50:49.064Z,100582.23
2018-05-15T10:51:51.514Z,100575.31
2018-05-15T10:52:54.020Z,100571.56
2018-05-15T10:53:56.537Z,100570.41
2018-05-15T10:54:59.052Z,100568.63
2018-05-15T10:56:01.564Z,100560.72
2018-05-15T10:57:04.099Z,100558.76
2018-05-15T10:58:06.616Z,100555.41
2018-05-15T10:59:09.128Z,100558.00
2018-05-15T11:00:11.620Z,100551.89
2018-05-15T11:01:14.113Z,100554.08
2018-05-15T11:02:16.903Z,100550.73
2018-05-15T11:03:19.405Z,100554.53
2018-05-15T11:04:21.897Z,100552.16
2018-05-15T11:05:24.408Z,100563.28
2018-05-15T11:06:26.883Z,100560.92
2018-05-15T11:07:29.408Z,100560.16
2018-05-15T11:08:31.909Z,100557.25
2018-05-15T11:09:34.397Z,100557.25
2018-05-15T11:10:36.908Z,100559.66
2018-05-15T11:11:39.387Z,100559.26
2018-05-15T11:12:42.108Z,100562.61
2018-05-15T11:13:44.601Z,100561.72
2018-05-15T11:14:47.089Z,100564.27
2018-05-15T11:15:49.577Z,100558.91
2018-05-15T11:16:52.088Z,100557.70
2018-05-15T11:17:54.617Z,100562.44
2018-05-15T11:18:57.091Z,100560.42
2018-05-15T11:20:11.493Z,100559.03
2018-05-15T11:21:25.863Z,100565.95
2018-05-15T11:22:40.302Z,100564.57
2018-05-15T11:25:21.886Z,100566.94
2018-05-15T11:26:24.381Z,100562.38
2018-05-15T11:27:26.897Z,100569.70
2018-05-15T11:28:29.409Z,100566.94
2018-05-15T11:29:31.890Z,100555.86
2018-05-15T11:30:34.410Z,100561.40
2018-05-15T11:31:36.917Z,100561.22
2018-05-15T11:32:39.407Z,100558.23
2018-05-15T11:33:41.921Z,100565.95
2018-05-15T11:34:44.421Z,100554.88
2018-05-15T11:35:47.008Z,100561.80
2018-05-15T11:36:49.437Z,100561.22
2018-05-15T11:37:51.926Z,100562.61
2018-05-15T11:38:54.444Z,100556.89
2018-05-15T11:39:56.942Z,100560.24
2018-05-15T11:40:59.433Z,100560.24
2018-05-15T11:42:01.925Z,100563.99
2018-05-15T11:43:04.411Z,100556.49
2018-05-15T11:44:06.917Z,100554.12
2018-05-15T11:45:09.414Z,100554.94
2018-05-15T11:46:11.923Z,100560.47
2018-05-15T11:47:14.463Z,100554.53
2018-05-15T11:48:17.361Z,100552.56
2018-05-15T11:49:20.028Z,100549.63
2018-05-15T11:50:22.765Z,100552.80
2018-05-15T11:51:25.176Z,100552.97
2018-05-15T11:52:27.403Z,100551.01
2018-05-15T11:53:29.529Z,100545.47
2018-05-15T11:54:32.065Z,100553.38
2018-05-15T11:55:35.296Z,100550.20
2018-05-15T11:56:37.089Z,100550.02